createdAt,value
2022-10-30T00:00:57.168Z,14.20
2022-10-30T00:02:00.177Z,14.20
2022-10-30T00:03:02.900Z,14.20
2022-10-30T00:04:06.333Z,14.20
2022-10-30T00:05:10.055Z,14.20
2022-10-30T00:06:13.099Z,14.20
2022-10-30T00:07:15.067Z,14.20
2022-10-30T00:08:20.252Z,14.20
2022-10-30T00:09:22.203Z,14.20
2022-10-30T00:10:25.979Z,14.20
2022-10-30T00:11:29.402Z,14.20
2022-10-30T00:12:32.302Z,14.20
2022-10-30T00:13:35.258Z,14.10
2022-10-30T00:14:37.221Z,14.10
2022-10-30T00:15:40.249Z,14.20
2022-10-30T00:16:43.363Z,14.20
2022-10-30T00:17:45.299Z,14.20
2022-10-30T00:18:48.313Z,14.20
2022-10-30T00:19:50.229Z,14.20
2022-10-30T00:20:54.624Z,14.10
2022-10-30T00:22:59.943Z,14.10
2022-10-30T00:24:02.289Z,14.00
2022-10-30T00:25:05.974Z,14.00
2022-10-30T00:26:08.249Z,14.10
2022-10-30T00:27:11.260Z,14.10
2022-10-30T00:28:13.318Z,14.10
2022-10-30T00:29:16.323Z,14.10
2022-10-30T00:30:18.861Z,14.10
2022-10-30T00:31:22.406Z,14.10
2022-10-30T00:32:24.511Z,14.10
2022-10-30T00:33:27.452Z,14.10
2022-10-30T00:34:29.355Z,14.10
2022-10-30T00:35:32.731Z,14.10
2022-10-30T00:36:36.151Z,14.10
2022-10-30T00:37:39.082Z,14.00
2022-10-30T00:38:41.081Z,14.00
2022-10-30T00:39:43.995Z,14.00
2022-10-30T00:40:49.180Z,14.10
2022-10-30T00:41:52.099Z,13.10
2022-10-30T00:42:54.303Z,14.10
2022-10-30T00:43:57.228Z,14.10
2022-10-30T00:44:59.363Z,14.00
2022-10-30T00:46:06.704Z,14.10
2022-10-30T00:47:17.042Z,14.00
2022-10-30T00:48:22.593Z,14.10
2022-10-30T00:49:25.087Z,14.00
2022-10-30T00:50:30.877Z,14.10
2022-10-30T00:51:37.330Z,14.00
2022-10-30T00:52:51.346Z,14.00
2022-10-30T00:53:53.814Z,14.00
2022-10-30T00:54:57.672Z,14.00
2022-10-30T00:56:02.767Z,14.00
2022-10-30T00:57:08.949Z,14.00
2022-10-30T00:58:15.834Z,14.00
2022-10-30T00:59:23.955Z,13.90
2022-10-30T01:00:28.590Z,14.00
2022-10-30T01:01:35.522Z,14.00
2022-10-30T01:02:38.461Z,14.00
2022-10-30T01:03:41.827Z,14.00
2022-10-30T01:04:45.960Z,14.00
2022-10-30T01:05:53.620Z,14.00
2022-10-30T01:06:58.341Z,14.00
2022-10-30T01:08:01.545Z,14.00
2022-10-30T01:09:04.413Z,14.00
2022-10-30T01:10:09.337Z,14.00
2022-10-30T01:11:12.266Z,14.00
2022-10-30T01:12:15.629Z,14.00
2022-10-30T01:13:19.518Z,14.00
2022-10-30T01:14:23.011Z,14.00
2022-10-30T01:15:30.564Z,14.00
2022-10-30T01:16:51.639Z,14.00
2022-10-30T01:18:13.352Z,14.10
2022-10-30T01:19:26.680Z,14.00
2022-10-30T01:20:48.511Z,13.90
2022-10-30T01:22:07.873Z,14.00
2022-10-30T01:23:20.575Z,13.90
2022-10-30T01:24:35.942Z,14.00
2022-10-30T01:25:54.234Z,14.00
2022-10-30T01:27:09.073Z,14.00
2022-10-30T01:28:36.846Z,14.00
2022-10-30T01:29:50.951Z,13.90
2022-10-30T01:31:05.831Z,14.00
2022-10-30T01:32:18.176Z,14.00
2022-10-30T01:33:31.227Z,13.90
2022-10-30T01:34:45.031Z,13.90
2022-10-30T01:35:53.632Z,13.90
2022-10-30T01:37:01.179Z,14.00
2022-10-30T01:38:10.942Z,14.00
2022-10-30T01:39:15.661Z,13.90
2022-10-30T01:40:20.098Z,13.90
2022-10-30T01:41:22.219Z,14.00
2022-10-30T01:42:47.038Z,13.90
2022-10-30T01:43:54.780Z,13.90
2022-10-30T01:44:57.644Z,13.90
2022-10-30T01:46:28.243Z,13.90
2022-10-30T01:47:39.231Z,13.90
2022-10-30T01:48:58.883Z,13.90
2022-10-30T01:50:14.450Z,13.90
2022-10-30T01:51:25.389Z,13.90
2022-10-30T01:52:39.620Z,13.80
2022-10-30T01:53:53.461Z,13.90
2022-10-30T01:55:03.398Z,13.90
2022-10-30T01:56:16.551Z,13.90
2022-10-30T01:57:30.967Z,13.90
2022-10-30T01:58:39.675Z,13.90
2022-10-30T01:59:46.879Z,13.90
2022-10-30T02:00:54.630Z,13.90
2022-10-30T02:01:58.419Z,13.90
2022-10-30T02:03:02.422Z,13.90
2022-10-30T02:04:04.885Z,13.90
2022-10-30T02:05:09.812Z,13.90
2022-10-30T02:06:11.735Z,13.90
2022-10-30T02:07:14.652Z,13.90
2022-10-30T02:08:17.268Z,13.90
2022-10-30T02:09:21.602Z,13.90
2022-10-30T02:10:23.574Z,13.90
2022-10-30T02:11:27.867Z,13.90
2022-10-30T02:12:30.144Z,13.90
2022-10-30T02:13:34.037Z,13.90
2022-10-30T02:14:39.998Z,13.80
2022-10-30T02:15:43.776Z,13.90
2022-10-30T02:16:50.303Z,13.90
2022-10-30T02:17:53.511Z,13.80
2022-10-30T02:18:55.480Z,13.90
2022-10-30T02:19:58.372Z,13.80
2022-10-30T02:21:01.875Z,13.80
2022-10-30T02:22:04.945Z,13.80
2022-10-30T02:23:07.681Z,13.80
2022-10-30T02:24:10.822Z,13.80
2022-10-30T02:25:12.979Z,13.80
2022-10-30T02:26:16.112Z,13.80
2022-10-30T02:27:18.056Z,13.80
2022-10-30T02:28:20.947Z,13.80
2022-10-30T02:29:22.948Z,13.80
2022-10-30T02:30:25.877Z,13.80
2022-10-30T02:31:27.950Z,13.80
2022-10-30T02:32:31.670Z,13.80
2022-10-30T02:33:33.597Z,13.90
2022-10-30T02:34:36.794Z,13.80
2022-10-30T02:35:38.786Z,13.90
2022-10-30T02:36:43.062Z,13.90
2022-10-30T02:37:47.331Z,13.80
2022-10-30T02:38:50.267Z,13.80
2022-10-30T02:39:52.209Z,13.80
2022-10-30T02:40:55.092Z,13.80
2022-10-30T02:41:57.267Z,13.90
2022-10-30T02:43:00.541Z,13.80
2022-10-30T02:44:02.623Z,13.80
2022-10-30T02:45:06.051Z,13.80
2022-10-30T02:46:08.250Z,13.80
2022-10-30T02:47:11.236Z,13.90
2022-10-30T02:48:13.186Z,13.80
2022-10-30T02:49:16.091Z,13.80
2022-10-30T02:50:18.015Z,13.80
2022-10-30T02:51:20.918Z,13.90
2022-10-30T02:52:24.183Z,13.80
2022-10-30T02:53:27.093Z,13.80
2022-10-30T02:54:29.019Z,13.90
2022-10-30T02:55:31.925Z,13.90
2022-10-30T02:56:33.847Z,13.90
2022-10-30T02:57:36.849Z,13.90
2022-10-30T02:58:38.828Z,13.90
2022-10-30T02:59:41.721Z,13.90
2022-10-30T03:00:43.635Z,13.90
2022-10-30T03:01:47.285Z,13.90
2022-10-30T03:04:01.941Z,13.90
2022-10-30T03:05:04.100Z,13.90
2022-10-30T03:06:08.871Z,13.80
2022-10-30T03:07:10.997Z,13.90
2022-10-30T03:08:15.290Z,13.80
2022-10-30T03:09:17.204Z,13.90
2022-10-30T03:10:20.148Z,13.80
2022-10-30T03:11:22.203Z,13.80
2022-10-30T03:12:25.323Z,13.80
2022-10-30T03:13:28.475Z,13.90
2022-10-30T03:14:31.364Z,13.90
2022-10-30T03:15:33.331Z,13.80
2022-10-30T03:16:38.230Z,13.80
2022-10-30T03:18:49.184Z,13.90
2022-10-30T03:19:51.580Z,13.80
2022-10-30T03:20:58.069Z,13.80
2022-10-30T03:22:00.975Z,13.80
2022-10-30T03:23:02.887Z,13.80
2022-10-30T03:24:07.644Z,13.80
2022-10-30T03:25:09.956Z,13.80
2022-10-30T03:26:13.182Z,13.70
2022-10-30T03:27:15.079Z,13.70
2022-10-30T03:28:17.986Z,13.70
2022-10-30T03:29:19.987Z,13.70
2022-10-30T03:30:22.861Z,13.70
2022-10-30T03:31:24.809Z,13.70
2022-10-30T03:32:27.733Z,13.70
2022-10-30T03:33:30.059Z,13.70
2022-10-30T03:34:32.992Z,13.70
2022-10-30T03:35:36.363Z,13.70
2022-10-30T03:36:39.273Z,13.70
2022-10-30T03:37:41.354Z,13.70
2022-10-30T03:38:44.390Z,13.70
2022-10-30T03:39:47.701Z,13.80
2022-10-30T03:40:51.127Z,13.70
2022-10-30T03:41:54.037Z,13.70
2022-10-30T03:42:56.249Z,13.70
2022-10-30T03:43:59.449Z,13.70
2022-10-30T03:45:01.405Z,13.70
2022-10-30T03:46:05.060Z,13.70
2022-10-30T03:47:07.056Z,13.70
2022-10-30T03:48:10.104Z,13.80
2022-10-30T03:49:12.011Z,13.70
2022-10-30T03:50:15.016Z,13.80
2022-10-30T03:51:17.777Z,13.80
2022-10-30T03:52:20.688Z,13.80
2022-10-30T03:53:23.954Z,13.70
2022-10-30T03:54:26.841Z,13.70
2022-10-30T03:55:30.147Z,13.80
2022-10-30T03:56:33.097Z,13.70
2022-10-30T03:57:36.997Z,13.60
2022-10-30T03:58:39.901Z,13.70
2022-10-30T03:59:41.795Z,13.60
2022-10-30T04:00:44.886Z,13.60
2022-10-30T04:01:47.036Z,13.60
2022-10-30T04:02:51.686Z,13.60
2022-10-30T04:03:53.643Z,13.60
2022-10-30T04:04:56.557Z,13.50
2022-10-30T04:05:58.529Z,13.50
2022-10-30T04:07:01.447Z,13.50
2022-10-30T04:08:05.200Z,13.50
2022-10-30T04:09:08.104Z,13.50
2022-10-30T04:10:10.772Z,13.40
2022-10-30T04:11:15.256Z,13.40
2022-10-30T04:12:17.191Z,13.50
2022-10-30T04:13:21.108Z,13.50
2022-10-30T04:14:23.047Z,13.50
2022-10-30T04:15:25.981Z,13.50
2022-10-30T04:16:27.914Z,13.50
2022-10-30T04:17:30.837Z,13.50
2022-10-30T04:18:32.730Z,13.50
2022-10-30T04:19:35.612Z,13.50
2022-10-30T04:20:37.576Z,13.50
2022-10-30T04:21:43.291Z,13.50
2022-10-30T04:22:45.333Z,13.50
2022-10-30T04:23:48.276Z,13.50
2022-10-30T04:24:50.323Z,13.50
2022-10-30T04:25:53.260Z,13.50
2022-10-30T04:26:56.678Z,13.40
2022-10-30T04:28:00.072Z,13.40
2022-10-30T04:29:02.494Z,13.40
2022-10-30T04:30:06.314Z,13.40
2022-10-30T04:31:09.640Z,13.40
2022-10-30T04:32:12.414Z,13.40
2022-10-30T04:33:15.881Z,13.50
2022-10-30T04:34:17.813Z,13.50
2022-10-30T04:35:22.892Z,13.50
2022-10-30T04:36:30.454Z,13.40
2022-10-30T04:37:32.504Z,13.40
2022-10-30T04:38:35.432Z,13.40
2022-10-30T04:39:40.905Z,13.40
2022-10-30T04:40:47.076Z,13.40
2022-10-30T04:41:48.994Z,13.40
2022-10-30T04:42:53.374Z,13.40
2022-10-30T04:43:56.364Z,13.40
2022-10-30T04:44:58.268Z,13.40
2022-10-30T04:46:05.049Z,13.40
2022-10-30T04:47:06.951Z,13.40
2022-10-30T04:48:12.312Z,13.40
2022-10-30T04:49:14.219Z,13.40
2022-10-30T04:50:17.658Z,13.40
2022-10-30T04:51:20.650Z,13.40
2022-10-30T04:52:22.565Z,13.30
2022-10-30T04:53:25.736Z,13.30
2022-10-30T04:54:28.666Z,13.40
2022-10-30T04:55:32.299Z,13.40
2022-10-30T04:56:34.257Z,13.30
2022-10-30T04:57:37.790Z,13.30
2022-10-30T04:58:41.140Z,13.30
2022-10-30T04:59:44.114Z,13.40
2022-10-30T05:00:46.119Z,13.30
2022-10-30T05:01:49.096Z,13.30
2022-10-30T05:02:51.106Z,13.30
2022-10-30T05:03:54.990Z,13.30
2022-10-30T05:04:57.132Z,13.30
2022-10-30T05:06:02.291Z,13.30
2022-10-30T05:07:04.283Z,13.30
2022-10-30T05:08:07.168Z,13.20
2022-10-30T05:09:09.167Z,13.20
2022-10-30T05:10:14.620Z,13.10
2022-10-30T05:11:16.862Z,13.20
2022-10-30T05:12:20.756Z,13.20
2022-10-30T05:13:22.960Z,13.20
2022-10-30T05:14:30.591Z,13.20
2022-10-30T05:15:32.507Z,13.20
2022-10-30T05:16:35.588Z,13.10
2022-10-30T05:17:37.540Z,13.10
2022-10-30T05:18:40.455Z,13.10
2022-10-30T05:19:42.355Z,13.10
2022-10-30T05:20:48.031Z,13.10
2022-10-30T05:21:50.146Z,13.10
2022-10-30T05:22:56.902Z,13.10
2022-10-30T05:23:58.816Z,13.00
2022-10-30T05:25:01.767Z,13.10
2022-10-30T05:26:03.839Z,13.10
2022-10-30T05:27:06.754Z,13.10
2022-10-30T05:28:10.544Z,13.10
2022-10-30T05:29:12.502Z,13.00
2022-10-30T05:30:16.935Z,13.00
2022-10-30T05:31:18.900Z,13.00
2022-10-30T05:32:21.811Z,13.00
2022-10-30T05:33:23.786Z,13.00
2022-10-30T05:34:26.723Z,13.00
2022-10-30T05:35:29.386Z,13.00
2022-10-30T05:36:32.412Z,13.00
2022-10-30T05:37:35.295Z,13.00
2022-10-30T05:38:37.258Z,13.00
2022-10-30T05:39:40.188Z,13.00
2022-10-30T05:40:42.108Z,13.00
2022-10-30T05:41:45.020Z,13.00
2022-10-30T05:42:47.329Z,13.00
2022-10-30T05:43:50.220Z,13.00
2022-10-30T05:45:00.793Z,13.00
2022-10-30T05:46:06.337Z,13.00
2022-10-30T05:47:08.256Z,13.10
2022-10-30T05:48:11.584Z,13.10
2022-10-30T05:49:13.521Z,13.10
2022-10-30T05:50:16.580Z,13.10
2022-10-30T05:51:18.536Z,13.10
2022-10-30T05:52:21.496Z,13.10
2022-10-30T05:53:23.779Z,13.10
2022-10-30T05:54:26.917Z,13.10
2022-10-30T05:55:29.304Z,13.10
2022-10-30T05:56:32.235Z,13.00
2022-10-30T05:57:34.178Z,13.00
2022-10-30T05:58:37.093Z,13.00
2022-10-30T05:59:39.211Z,13.00
2022-10-30T06:00:44.243Z,13.00
2022-10-30T06:01:47.503Z,13.00
2022-10-30T06:02:50.477Z,12.90
2022-10-30T06:03:52.439Z,12.90
2022-10-30T06:04:55.477Z,12.90
2022-10-30T06:05:57.391Z,13.00
2022-10-30T06:07:00.288Z,12.90
2022-10-30T06:08:04.073Z,12.90
2022-10-30T06:09:06.042Z,12.90
2022-10-30T06:10:09.883Z,12.90
2022-10-30T06:11:11.806Z,12.90
2022-10-30T06:12:14.735Z,13.00
2022-10-30T06:13:16.654Z,13.00
2022-10-30T06:14:19.581Z,13.00
2022-10-30T06:15:21.594Z,12.90
2022-10-30T06:16:24.681Z,13.00
2022-10-30T06:17:30.659Z,12.90
2022-10-30T06:18:33.557Z,13.00
2022-10-30T06:19:35.493Z,13.00
2022-10-30T06:20:38.428Z,13.00
2022-10-30T06:21:40.337Z,13.00
2022-10-30T06:22:43.294Z,13.00
2022-10-30T06:23:45.219Z,13.00
2022-10-30T06:24:48.380Z,13.00
2022-10-30T06:25:50.308Z,13.00
2022-10-30T06:26:53.214Z,13.00
2022-10-30T06:27:55.322Z,13.00
2022-10-30T06:28:58.508Z,12.90
2022-10-30T06:30:00.440Z,13.00
2022-10-30T06:31:03.397Z,13.00
2022-10-30T06:32:06.894Z,13.00
2022-10-30T06:33:11.984Z,13.00
2022-10-30T06:34:13.893Z,13.00
2022-10-30T06:35:16.941Z,13.10
2022-10-30T06:36:18.916Z,13.00
2022-10-30T06:37:21.874Z,13.00
2022-10-30T06:38:23.898Z,13.00
2022-10-30T06:39:26.787Z,13.00
2022-10-30T06:40:29.936Z,13.00
2022-10-30T06:41:33.860Z,13.00
2022-10-30T06:42:43.208Z,13.10
2022-10-30T06:43:46.223Z,13.10
2022-10-30T06:44:48.955Z,13.10
2022-10-30T06:45:51.954Z,13.20
2022-10-30T06:46:54.360Z,13.10
2022-10-30T06:47:58.094Z,13.10
2022-10-30T06:49:01.728Z,13.20
2022-10-30T06:50:04.908Z,13.20
2022-10-30T06:51:07.895Z,13.20
2022-10-30T06:52:10.069Z,13.20
2022-10-30T06:53:12.952Z,13.10
2022-10-30T06:54:14.890Z,13.10
2022-10-30T06:55:18.389Z,13.10
2022-10-30T06:56:20.315Z,13.10
2022-10-30T06:57:23.280Z,13.10
2022-10-30T06:58:25.635Z,13.20
2022-10-30T06:59:28.564Z,13.20
2022-10-30T07:00:30.540Z,13.20
2022-10-30T07:01:33.537Z,13.20
2022-10-30T07:02:35.576Z,13.20
2022-10-30T07:03:38.484Z,13.20
2022-10-30T07:04:41.764Z,13.20
2022-10-30T07:05:44.717Z,13.20
2022-10-30T07:06:46.646Z,13.20
2022-10-30T07:07:49.542Z,13.20
2022-10-30T07:08:52.462Z,13.20
2022-10-30T07:09:54.461Z,13.20
2022-10-30T07:10:58.831Z,13.30
2022-10-30T07:12:06.597Z,13.30
2022-10-30T07:13:10.535Z,13.30
2022-10-30T07:14:12.631Z,13.30
2022-10-30T07:15:15.752Z,13.40
2022-10-30T07:16:17.659Z,13.30
2022-10-30T07:17:20.585Z,13.30
2022-10-30T07:18:22.507Z,13.30
2022-10-30T07:19:26.044Z,13.40
2022-10-30T07:20:31.170Z,13.30
2022-10-30T07:21:34.167Z,13.30
2022-10-30T07:22:38.641Z,13.30
2022-10-30T07:23:41.666Z,13.30
2022-10-30T07:24:43.612Z,13.40
2022-10-30T07:25:46.567Z,13.30
2022-10-30T07:26:48.503Z,13.40
2022-10-30T07:27:53.413Z,13.40
2022-10-30T07:28:55.357Z,13.40
2022-10-30T07:29:58.401Z,13.40
2022-10-30T07:31:01.568Z,13.40
2022-10-30T07:32:04.063Z,13.40
2022-10-30T07:33:08.565Z,13.40
2022-10-30T07:34:11.651Z,13.40
2022-10-30T07:35:14.939Z,13.40
2022-10-30T07:36:19.533Z,13.40
2022-10-30T07:37:21.520Z,13.40
2022-10-30T07:38:24.400Z,13.40
2022-10-30T07:39:26.325Z,13.40
2022-10-30T07:40:29.264Z,13.40
2022-10-30T07:41:31.208Z,13.40
2022-10-30T07:42:34.436Z,13.40
2022-10-30T07:43:36.420Z,13.40
2022-10-30T07:44:39.305Z,13.50
2022-10-30T07:45:41.238Z,13.50
2022-10-30T07:46:44.137Z,13.50
2022-10-30T07:47:48.807Z,13.50
2022-10-30T07:48:51.933Z,13.50
2022-10-30T07:49:53.909Z,13.50
2022-10-30T07:50:56.868Z,13.50
2022-10-30T07:52:01.282Z,13.50
2022-10-30T07:53:03.271Z,13.50
2022-10-30T07:54:06.325Z,13.60
2022-10-30T07:55:09.052Z,13.60
2022-10-30T07:56:11.955Z,13.60
2022-10-30T07:57:13.868Z,13.70
2022-10-30T07:58:16.768Z,13.70
2022-10-30T07:59:18.745Z,13.70
2022-10-30T08:00:21.913Z,13.80
2022-10-30T08:01:24.916Z,13.80
2022-10-30T08:02:27.164Z,13.80
2022-10-30T08:03:30.200Z,13.80
2022-10-30T08:04:32.166Z,13.80
2022-10-30T08:05:35.765Z,13.90
2022-10-30T08:06:37.669Z,13.80
2022-10-30T08:07:42.099Z,13.90
2022-10-30T08:08:45.095Z,13.90
2022-10-30T08:09:47.736Z,13.90
2022-10-30T08:10:50.623Z,13.90
2022-10-30T08:11:52.541Z,14.00
2022-10-30T08:12:55.524Z,14.00
2022-10-30T08:13:57.481Z,14.00
2022-10-30T08:15:00.415Z,14.00
2022-10-30T08:16:03.331Z,14.00
2022-10-30T08:17:05.228Z,13.90
2022-10-30T08:18:08.135Z,13.90
2022-10-30T08:19:11.056Z,14.00
2022-10-30T08:20:14.524Z,14.00
2022-10-30T08:21:17.483Z,14.10
2022-10-30T08:22:20.450Z,14.10
2022-10-30T08:23:23.732Z,14.10
2022-10-30T08:24:26.695Z,14.20
2022-10-30T08:25:30.302Z,14.20
2022-10-30T08:26:33.483Z,14.20
2022-10-30T08:27:35.382Z,14.10
2022-10-30T08:28:38.555Z,14.10
2022-10-30T08:29:41.494Z,14.20
2022-10-30T08:30:44.391Z,14.20
2022-10-30T08:31:48.838Z,14.20
2022-10-30T08:32:52.548Z,14.20
2022-10-30T08:33:54.466Z,14.30
2022-10-30T08:34:57.360Z,14.30
2022-10-30T08:36:00.792Z,14.30
2022-10-30T08:37:03.692Z,14.40
2022-10-30T08:38:05.610Z,14.40
2022-10-30T08:39:09.909Z,14.40
2022-10-30T08:40:12.396Z,14.40
2022-10-30T08:41:15.294Z,14.40
2022-10-30T08:42:17.208Z,14.40
2022-10-30T08:43:20.668Z,14.50
2022-10-30T08:44:22.644Z,14.50
2022-10-30T08:45:29.920Z,14.50
2022-10-30T08:46:33.388Z,14.50
2022-10-30T08:47:36.269Z,14.60
2022-10-30T08:48:38.183Z,14.60
2022-10-30T08:49:41.136Z,14.60
2022-10-30T08:50:43.440Z,14.60
2022-10-30T08:51:46.344Z,14.60
2022-10-30T08:52:50.761Z,14.60
2022-10-30T08:53:56.753Z,14.60
2022-10-30T08:55:00.048Z,14.70
2022-10-30T08:56:02.946Z,14.60
2022-10-30T08:57:04.872Z,14.60
2022-10-30T08:58:07.781Z,15.70
2022-10-30T08:59:09.710Z,14.70
2022-10-30T09:00:13.079Z,14.70
2022-10-30T09:01:16.059Z,14.70
2022-10-30T09:02:19.136Z,14.70
2022-10-30T09:03:22.208Z,14.70
2022-10-30T09:04:24.214Z,14.80
2022-10-30T09:05:27.289Z,14.80
2022-10-30T09:06:30.565Z,14.70
2022-10-30T09:07:33.620Z,14.80
2022-10-30T09:08:35.528Z,14.80
2022-10-30T09:09:38.411Z,14.80
2022-10-30T09:10:41.756Z,14.80
2022-10-30T09:11:44.696Z,14.80
2022-10-30T09:12:46.690Z,14.80
2022-10-30T09:13:49.600Z,14.80
2022-10-30T09:14:51.526Z,14.90
2022-10-30T09:15:54.585Z,14.90
2022-10-30T09:16:56.560Z,14.90
2022-10-30T09:18:01.297Z,14.90
2022-10-30T09:19:04.605Z,14.90
2022-10-30T09:20:06.973Z,14.90
2022-10-30T09:21:10.221Z,14.90
2022-10-30T09:22:12.217Z,14.90
2022-10-30T09:23:15.120Z,14.90
2022-10-30T09:24:17.021Z,15.00
2022-10-30T09:25:20.220Z,15.00
2022-10-30T09:26:24.479Z,15.00
2022-10-30T09:27:27.578Z,15.00
2022-10-30T09:28:30.476Z,15.00
2022-10-30T09:29:32.412Z,15.00
2022-10-30T09:30:35.319Z,15.00
2022-10-30T09:31:37.240Z,15.00
2022-10-30T09:32:40.397Z,15.00
2022-10-30T09:33:42.320Z,15.10
2022-10-30T09:34:45.231Z,15.10
2022-10-30T09:35:47.126Z,15.10
2022-10-30T09:36:50.032Z,15.20
2022-10-30T09:37:52.345Z,15.10
2022-10-30T09:38:55.691Z,15.10
2022-10-30T09:39:57.604Z,15.20
2022-10-30T09:41:30.386Z,13.60
2022-10-30T09:42:42.332Z,15.20
2022-10-30T09:43:58.154Z,15.20
2022-10-30T09:45:28.724Z,15.30
2022-10-30T09:46:46.179Z,15.30
2022-10-30T09:48:01.663Z,15.30
2022-10-30T09:49:18.570Z,15.30
2022-10-30T09:50:26.212Z,15.40
2022-10-30T09:51:54.698Z,15.40
2022-10-30T09:53:08.198Z,15.40
2022-10-30T09:54:17.833Z,15.40
2022-10-30T09:55:30.978Z,15.40
2022-10-30T09:56:40.873Z,15.40
2022-10-30T09:57:50.872Z,15.40
2022-10-30T09:59:05.039Z,15.40
2022-10-30T10:00:12.805Z,15.50
2022-10-30T10:01:20.711Z,15.50
2022-10-30T10:02:34.424Z,15.50
2022-10-30T10:04:02.109Z,15.50
2022-10-30T10:05:20.337Z,15.60
2022-10-30T10:06:24.572Z,15.50
2022-10-30T10:07:31.953Z,15.60
2022-10-30T10:08:39.143Z,15.50
2022-10-30T10:09:44.015Z,15.60
2022-10-30T10:10:49.557Z,15.60
2022-10-30T10:11:57.436Z,15.60
2022-10-30T10:13:01.409Z,15.60
2022-10-30T10:14:09.456Z,15.60
2022-10-30T10:15:16.811Z,15.60
2022-10-30T10:16:21.523Z,15.70
2022-10-30T10:17:31.672Z,15.60
2022-10-30T10:18:37.925Z,15.70
2022-10-30T10:19:49.275Z,15.70
2022-10-30T10:20:53.743Z,15.70
2022-10-30T10:21:59.460Z,15.70
2022-10-30T10:23:06.189Z,15.70
2022-10-30T10:24:19.659Z,15.70
2022-10-30T10:25:23.294Z,15.70
2022-10-30T10:26:30.822Z,15.70
2022-10-30T10:27:50.413Z,15.70
2022-10-30T10:29:13.568Z,15.70
2022-10-30T10:30:20.188Z,15.80
2022-10-30T10:31:37.848Z,15.80
2022-10-30T10:33:01.042Z,15.70
2022-10-30T10:34:33.032Z,15.70
2022-10-30T10:35:54.523Z,15.70
2022-10-30T10:37:07.073Z,15.70
2022-10-30T10:38:20.632Z,15.70
2022-10-30T10:39:35.946Z,15.70
2022-10-30T10:40:47.943Z,15.80
2022-10-30T10:42:06.073Z,15.70
2022-10-30T10:43:23.012Z,15.80
2022-10-30T10:44:50.282Z,15.80
2022-10-30T10:45:59.627Z,15.80
2022-10-30T10:47:35.508Z,15.80
2022-10-30T10:48:54.396Z,15.80
2022-10-30T10:50:11.482Z,15.80
2022-10-30T10:51:19.079Z,15.80
2022-10-30T10:52:24.769Z,15.80
2022-10-30T10:53:33.666Z,15.80
2022-10-30T10:54:42.384Z,15.80
2022-10-30T10:55:48.792Z,15.80
2022-10-30T10:56:52.093Z,15.80
2022-10-30T10:57:59.263Z,15.80
2022-10-30T10:59:08.920Z,15.80
2022-10-30T11:00:15.767Z,15.80
2022-10-30T11:01:21.804Z,15.80
2022-10-30T11:02:38.191Z,15.80
2022-10-30T11:03:51.934Z,14.10
2022-10-30T11:04:57.415Z,15.80
2022-10-30T11:06:06.922Z,15.80
2022-10-30T11:07:21.653Z,15.80
2022-10-30T11:08:28.325Z,15.80
2022-10-30T11:09:30.308Z,15.80
2022-10-30T11:10:33.207Z,15.80
2022-10-30T11:11:37.171Z,15.80
2022-10-30T11:12:39.176Z,15.80
2022-10-30T11:13:43.957Z,15.80
2022-10-30T11:14:47.272Z,15.80
2022-10-30T11:15:59.752Z,15.80
2022-10-30T11:17:11.094Z,15.80
2022-10-30T11:18:16.138Z,15.80
2022-10-30T11:19:18.052Z,15.90
2022-10-30T11:20:29.263Z,15.80
2022-10-30T11:21:36.137Z,15.90
2022-10-30T11:22:42.968Z,15.90
2022-10-30T11:23:47.926Z,15.90
2022-10-30T11:24:49.904Z,15.90
2022-10-30T11:25:52.800Z,15.90
2022-10-30T11:26:57.398Z,15.90
2022-10-30T11:28:01.272Z,15.90
2022-10-30T11:29:11.850Z,15.90
2022-10-30T11:30:20.998Z,15.90
2022-10-30T11:31:24.948Z,15.90
2022-10-30T11:32:30.248Z,15.90
2022-10-30T11:33:32.232Z,15.90
2022-10-30T11:34:36.908Z,15.90
2022-10-30T11:35:43.024Z,15.90
2022-10-30T11:36:46.735Z,15.90
2022-10-30T11:37:50.780Z,15.90
2022-10-30T11:38:55.611Z,15.90
2022-10-30T11:40:07.081Z,15.90
2022-10-30T11:41:11.295Z,15.90
2022-10-30T11:42:16.981Z,16.00
2022-10-30T11:43:22.683Z,16.20
2022-10-30T11:44:29.386Z,16.10
2022-10-30T11:45:35.574Z,16.10
2022-10-30T11:46:38.184Z,16.00
2022-10-30T11:47:41.425Z,16.00
2022-10-30T11:48:45.355Z,16.00
2022-10-30T11:49:52.988Z,16.00
2022-10-30T11:50:59.105Z,16.00
2022-10-30T11:52:02.688Z,16.00
2022-10-30T11:53:17.544Z,16.00
2022-10-30T11:54:21.970Z,16.00
2022-10-30T11:55:31.144Z,16.00
2022-10-30T11:56:34.808Z,16.00
2022-10-30T11:57:42.753Z,16.00
2022-10-30T11:58:46.838Z,16.00
2022-10-30T11:59:51.774Z,16.00
2022-10-30T12:01:06.940Z,16.00
2022-10-30T12:02:22.841Z,16.00
2022-10-30T12:03:29.725Z,16.00
2022-10-30T12:04:33.030Z,16.00
2022-10-30T12:05:38.313Z,16.00
2022-10-30T12:06:41.265Z,16.00
2022-10-30T12:07:43.172Z,16.00
2022-10-30T12:09:00.504Z,16.00
2022-10-30T12:10:04.463Z,16.00
2022-10-30T12:11:07.013Z,16.00
2022-10-30T12:12:13.033Z,16.10
2022-10-30T12:13:17.397Z,16.10
2022-10-30T12:14:22.265Z,16.00
2022-10-30T12:15:26.529Z,16.10
2022-10-30T12:16:31.598Z,16.00
2022-10-30T12:17:33.600Z,16.10
2022-10-30T12:18:37.461Z,16.10
2022-10-30T12:19:45.389Z,16.10
2022-10-30T12:20:52.995Z,16.10
2022-10-30T12:21:57.010Z,16.10
2022-10-30T12:23:09.476Z,16.00
2022-10-30T12:24:17.774Z,16.10
2022-10-30T12:25:27.424Z,16.10
2022-10-30T12:26:30.397Z,16.00
2022-10-30T12:27:38.395Z,16.00
2022-10-30T12:28:47.551Z,16.10
2022-10-30T12:30:10.448Z,16.10
2022-10-30T12:31:18.505Z,16.10
2022-10-30T12:32:25.056Z,16.10
2022-10-30T12:33:32.636Z,16.10
2022-10-30T12:34:41.249Z,16.10
2022-10-30T12:35:46.720Z,16.10
2022-10-30T12:36:54.322Z,16.10
2022-10-30T12:37:59.805Z,16.00
2022-10-30T12:39:11.099Z,16.10
2022-10-30T12:40:18.640Z,16.10
2022-10-30T12:41:26.300Z,16.10
2022-10-30T12:42:28.874Z,16.10
2022-10-30T12:43:35.137Z,16.10
2022-10-30T12:44:40.272Z,16.10
2022-10-30T12:45:45.289Z,16.10
2022-10-30T12:46:51.881Z,16.10
2022-10-30T12:48:02.400Z,16.10
2022-10-30T12:49:14.474Z,16.10
2022-10-30T12:50:22.781Z,16.10
2022-10-30T12:51:32.459Z,16.10
2022-10-30T12:52:38.896Z,16.10
2022-10-30T12:53:47.463Z,16.10
2022-10-30T12:54:55.946Z,16.10
2022-10-30T12:56:05.622Z,16.10
2022-10-30T12:57:11.271Z,16.10
2022-10-30T12:58:24.824Z,16.20
2022-10-30T12:59:35.754Z,16.10
2022-10-30T13:00:44.037Z,16.20
2022-10-30T13:01:52.065Z,16.20
2022-10-30T13:03:02.119Z,16.20
2022-10-30T13:04:10.068Z,16.20
2022-10-30T13:05:34.920Z,16.20
2022-10-30T13:06:42.338Z,16.20
2022-10-30T13:07:51.307Z,16.20
2022-10-30T13:09:09.324Z,16.20
2022-10-30T13:10:27.565Z,16.20
2022-10-30T13:11:40.426Z,16.20
2022-10-30T13:12:47.885Z,16.20
2022-10-30T13:13:53.488Z,16.20
2022-10-30T13:15:00.871Z,16.20
2022-10-30T13:16:06.623Z,16.20
2022-10-30T13:17:12.550Z,16.20
2022-10-30T13:18:18.465Z,16.20
2022-10-30T13:19:21.386Z,16.20
2022-10-30T13:20:23.927Z,16.20
2022-10-30T13:21:33.155Z,16.20
2022-10-30T13:22:42.536Z,16.20
2022-10-30T13:23:51.781Z,16.20
2022-10-30T13:25:04.001Z,16.20
2022-10-30T13:26:16.307Z,16.20
2022-10-30T13:27:25.164Z,16.20
2022-10-30T13:28:33.179Z,16.20
2022-10-30T13:29:42.860Z,16.20
2022-10-30T13:30:53.880Z,16.20
2022-10-30T13:32:08.808Z,16.20
2022-10-30T13:33:21.960Z,16.20
2022-10-30T13:34:35.100Z,16.30
2022-10-30T13:35:42.967Z,16.20
2022-10-30T13:36:51.899Z,16.30
2022-10-30T13:38:02.940Z,16.30
2022-10-30T13:39:20.564Z,16.30
2022-10-30T13:40:30.636Z,16.30
2022-10-30T13:41:39.101Z,16.30
2022-10-30T13:42:55.824Z,16.30
2022-10-30T13:44:05.774Z,16.30
2022-10-30T13:45:26.697Z,16.30
2022-10-30T13:46:45.953Z,16.30
2022-10-30T13:48:00.768Z,16.30
2022-10-30T13:49:27.196Z,16.30
2022-10-30T13:50:45.927Z,16.30
2022-10-30T13:51:55.692Z,16.30
2022-10-30T13:53:03.213Z,16.30
2022-10-30T13:54:16.577Z,16.30
2022-10-30T13:55:23.550Z,16.30
2022-10-30T13:56:25.611Z,16.40
2022-10-30T13:57:34.745Z,16.40
2022-10-30T13:58:41.304Z,16.40
2022-10-30T13:59:56.080Z,16.40
2022-10-30T14:01:04.580Z,16.40
2022-10-30T14:02:16.997Z,16.40
2022-10-30T14:03:30.422Z,16.40
2022-10-30T14:04:40.167Z,16.40
2022-10-30T14:05:48.732Z,16.40
2022-10-30T14:06:56.600Z,16.40
2022-10-30T14:08:07.067Z,16.40